sensor_id;sensor_type;location;lat;lon;timestamp;temperature;humidity
13049;DHT22;6591;51.446;5.404;2022-12-07T00:01:42;6.50;99.90
13049;DHT22;6591;51.446;5.404;2022-12-07T00:04:12;6.50;99.90
13049;DHT22;6591;51.446;5.404;2022-12-07T00:06:43;6.40;99.90
13049;DHT22;6591;51.446;5.404;2022-12-07T00:09:17;6.40;99.90
13049;DHT22;6591;51.446;5.404;2022-12-07T00:11:48;6.40;99.90
13049;DHT22;6591;51.446;5.404;2022-12-07T00:14:17;6.20;99.90
13049;DHT22;6591;51.446;5.404;2022-12-07T00:16:45;6.20;99.90
13049;DHT22;6591;51.446;5.404;2022-12-07T00:19:17;6.10;99.90
13049;DHT22;6591;51.446;5.404;2022-12-07T00:21:44;6.10;99.90
13049;DHT22;6591;51.446;5.404;2022-12-07T00:24:11;6.00;99.90
13049;DHT22;6591;51.446;5.404;2022-12-07T00:26:40;5.90;99.90
13049;DHT22;6591;51.446;5.404;2022-12-07T00:29:16;5.90;99.90
13049;DHT22;6591;51.446;5.404;2022-12-07T00:31:45;5.80;99.90
13049;DHT22;6591;51.446;5.404;2022-12-07T00:34:15;5.80;99.90
13049;DHT22;6591;51.446;5.404;2022-12-07T00:36:44;7.20;99.90
13049;DHT22;6591;51.446;5.404;2022-12-07T00:39:11;5.70;99.90
13049;DHT22;6591;51.446;5.404;2022-12-07T00:41:38;6.40;99.90
13049;DHT22;6591;51.446;5.404;2022-12-07T00:44:05;5.60;99.90
13049;DHT22;6591;51.446;5.404;2022-12-07T00:46:33;5.60;99.90
13049;DHT22;6591;51.446;5.404;2022-12-07T00:49:00;5.50;99.90
13049;DHT22;6591;51.446;5.404;2022-12-07T00:51:27;5.50;99.90
13049;DHT22;6591;51.446;5.404;2022-12-07T00:53:54;5.50;99.90
13049;DHT22;6591;51.446;5.404;2022-12-07T00:56:26;5.50;99.90
13049;DHT22;6591;51.446;5.404;2022-12-07T00:59:02;5.60;99.90
13049;DHT22;6591;51.446;5.404;2022-12-07T01:01:33;5.50;99.90
13049;DHT22;6591;51.446;5.404;2022-12-07T01:04:02;5.60;99.90
13049;DHT22;6591;51.446;5.404;2022-12-07T01:06:30;5.60;99.90
13049;DHT22;6591;51.446;5.404;2022-12-07T01:08:58;5.60;99.90
13049;DHT22;6591;51.446;5.404;2022-12-07T01:11:28;5.60;99.90
13049;DHT22;6591;51.446;5.404;2022-12-07T01:13:58;5.60;99.90
13049;DHT22;6591;51.446;5.404;2022-12-07T01:16:30;5.60;99.90
13049;DHT22;6591;51.446;5.404;2022-12-07T01:18:59;6.00;99.90
13049;DHT22;6591;51.446;5.404;2022-12-07T01:21:29;5.60;99.90
13049;DHT22;6591;51.446;5.404;2022-12-07T01:24:02;5.60;99.90
13049;DHT22;6591;51.446;5.404;2022-12-07T01:26:31;5.50;99.90
13049;DHT22;6591;51.446;5.404;2022-12-07T01:28:58;7.60;99.90
13049;DHT22;6591;51.446;5.404;2022-12-07T01:31:28;5.30;99.90
13049;DHT22;6591;51.446;5.404;2022-12-07T01:33:58;5.40;99.90
13049;DHT22;6591;51.446;5.404;2022-12-07T01:36:31;5.40;99.90
13049;DHT22;6591;51.446;5.404;2022-12-07T01:39:06;5.40;99.90
13049;DHT22;6591;51.446;5.404;2022-12-07T01:41:37;5.40;99.90
13049;DHT22;6591;51.446;5.404;2022-12-07T01:46:50;5.40;99.90
13049;DHT22;6591;51.446;5.404;2022-12-07T01:49:21;5.50;99.90
13049;DHT22;6591;51.446;5.404;2022-12-07T01:51:57;6.30;99.90
13049;DHT22;6591;51.446;5.404;2022-12-07T01:54:33;5.60;99.90
13049;DHT22;6591;51.446;5.404;2022-12-07T01:57:02;5.60;99.90
13049;DHT22;6591;51.446;5.404;2022-12-07T01:59:31;5.60;99.90
13049;DHT22;6591;51.446;5.404;2022-12-07T02:01:58;5.70;99.90
13049;DHT22;6591;51.446;5.404;2022-12-07T02:05:00;5.70;99.90
13049;DHT22;6591;51.446;5.404;2022-12-07T02:07:59;6.50;99.90
13049;DHT22;6591;51.446;5.404;2022-12-07T02:14:24;8.00;99.90
13049;DHT22;6591;51.446;5.404;2022-12-07T02:17:03;6.80;99.90
13049;DHT22;6591;51.446;5.404;2022-12-07T02:23:09;8.10;99.90
13049;DHT22;6591;51.446;5.404;2022-12-07T02:30:02;5.90;99.90
13049;DHT22;6591;51.446;5.404;2022-12-07T02:33:00;6.00;99.90
13049;DHT22;6591;51.446;5.404;2022-12-07T02:36:12;7.50;99.90
13049;DHT22;6591;51.446;5.404;2022-12-07T02:39:09;5.80;99.90
13049;DHT22;6591;51.446;5.404;2022-12-07T02:45:01;4.90;99.90
13049;DHT22;6591;51.446;5.404;2022-12-07T02:47:41;7.70;99.90
13049;DHT22;6591;51.446;5.404;2022-12-07T02:50:39;5.00;99.90
13049;DHT22;6591;51.446;5.404;2022-12-07T02:54:17;7.20;99.90
13049;DHT22;6591;51.446;5.404;2022-12-07T03:00:18;5.70;99.90
13049;DHT22;6591;51.446;5.404;2022-12-07T03:02:58;5.60;99.90
13049;DHT22;6591;51.446;5.404;2022-12-07T03:18:45;5.60;99.90
13049;DHT22;6591;51.446;5.404;2022-12-07T03:21:23;8.10;99.90
13049;DHT22;6591;51.446;5.404;2022-12-07T03:24:04;5.50;99.90
13049;DHT22;6591;51.446;5.404;2022-12-07T03:30:21;4.60;99.90
13049;DHT22;6591;51.446;5.404;2022-12-07T03:33:01;5.70;99.90
13049;DHT22;6591;51.446;5.404;2022-12-07T03:35:49;6.90;99.90
13049;DHT22;6591;51.446;5.404;2022-12-07T03:38:44;5.50;99.90
13049;DHT22;6591;51.446;5.404;2022-12-07T03:41:41;7.00;99.90
13049;DHT22;6591;51.446;5.404;2022-12-07T03:44:42;5.50;99.90
13049;DHT22;6591;51.446;5.404;2022-12-07T03:53:21;5.50;99.90
13049;DHT22;6591;51.446;5.404;2022-12-07T03:55:57;5.20;99.90
13049;DHT22;6591;51.446;5.404;2022-12-07T03:58:26;8.00;99.90
13049;DHT22;6591;51.446;5.404;2022-12-07T04:00:56;8.00;99.90
13049;DHT22;6591;51.446;5.404;2022-12-07T04:03:29;5.60;99.90
13049;DHT22;6591;51.446;5.404;2022-12-07T04:06:04;6.70;99.90
13049;DHT22;6591;51.446;5.404;2022-12-07T04:08:32;5.20;99.90
13049;DHT22;6591;51.446;5.404;2022-12-07T04:11:03;7.90;99.90
13049;DHT22;6591;51.446;5.404;2022-12-07T04:13:37;5.70;99.90
13049;DHT22;6591;51.446;5.404;2022-12-07T04:16:25;6.60;99.90
13049;DHT22;6591;51.446;5.404;2022-12-07T04:18:55;5.70;99.90
13049;DHT22;6591;51.446;5.404;2022-12-07T04:21:27;7.00;99.90
13049;DHT22;6591;51.446;5.404;2022-12-07T04:24:12;5.90;99.90
13049;DHT22;6591;51.446;5.404;2022-12-07T04:26:43;7.90;99.90
13049;DHT22;6591;51.446;5.404;2022-12-07T04:29:28;5.80;99.90
13049;DHT22;6591;51.446;5.404;2022-12-07T04:32:05;6.10;99.90
13049;DHT22;6591;51.446;5.404;2022-12-07T04:34:46;6.20;99.90
13049;DHT22;6591;51.446;5.404;2022-12-07T04:37:35;8.40;99.90
13049;DHT22;6591;51.446;5.404;2022-12-07T04:40:09;6.00;99.90
13049;DHT22;6591;51.446;5.404;2022-12-07T04:42:48;7.10;99.90
13049;DHT22;6591;51.446;5.404;2022-12-07T04:45:33;7.40;99.90
13049;DHT22;6591;51.446;5.404;2022-12-07T04:48:00;6.30;99.90
13049;DHT22;6591;51.446;5.404;2022-12-07T04:50:27;6.40;99.90
13049;DHT22;6591;51.446;5.404;2022-12-07T04:52:53;6.20;99.90
13049;DHT22;6591;51.446;5.404;2022-12-07T04:55:20;6.50;99.90
13049;DHT22;6591;51.446;5.404;2022-12-07T04:57:48;6.20;99.90
13049;DHT22;6591;51.446;5.404;2022-12-07T05:00:15;6.20;99.90
13049;DHT22;6591;51.446;5.404;2022-12-07T05:02:42;6.30;99.90
13049;DHT22;6591;51.446;5.404;2022-12-07T05:05:09;6.30;99.90
13049;DHT22;6591;51.446;5.404;2022-12-07T05:07:36;6.30;99.90
13049;DHT22;6591;51.446;5.404;2022-12-07T05:10:04;6.40;99.90
13049;DHT22;6591;51.446;5.404;2022-12-07T05:12:32;6.30;99.90
13049;DHT22;6591;51.446;5.404;2022-12-07T05:14:58;6.40;99.90
13049;DHT22;6591;51.446;5.404;2022-12-07T05:17:25;6.40;99.90
13049;DHT22;6591;51.446;5.404;2022-12-07T05:19:52;8.30;99.90
13049;DHT22;6591;51.446;5.404;2022-12-07T05:22:19;7.80;99.90
13049;DHT22;6591;51.446;5.404;2022-12-07T05:24:46;6.50;99.90
13049;DHT22;6591;51.446;5.404;2022-12-07T05:27:13;6.50;99.90
13049;DHT22;6591;51.446;5.404;2022-12-07T05:29:40;7.90;99.90
13049;DHT22;6591;51.446;5.404;2022-12-07T05:32:07;6.50;99.90
13049;DHT22;6591;51.446;5.404;2022-12-07T05:34:34;6.50;99.90
13049;DHT22;6591;51.446;5.404;2022-12-07T05:37:01;8.50;99.90
13049;DHT22;6591;51.446;5.404;2022-12-07T05:39:30;6.50;99.90
13049;DHT22;6591;51.446;5.404;2022-12-07T05:41:57;6.50;99.90
13049;DHT22;6591;51.446;5.404;2022-12-07T05:44:44;7.70;99.90
13049;DHT22;6591;51.446;5.404;2022-12-07T05:47:14;6.40;99.90
13049;DHT22;6591;51.446;5.404;2022-12-07T05:49:41;6.40;99.90
13049;DHT22;6591;51.446;5.404;2022-12-07T05:52:08;6.40;99.90
13049;DHT22;6591;51.446;5.404;2022-12-07T05:54:35;7.30;99.90
13049;DHT22;6591;51.446;5.404;2022-12-07T05:57:03;6.30;99.90
13049;DHT22;6591;51.446;5.404;2022-12-07T05:59:30;5.90;99.90
13049;DHT22;6591;51.446;5.404;2022-12-07T06:01:59;6.10;99.90
13049;DHT22;6591;51.446;5.404;2022-12-07T06:04:37;6.00;99.90
13049;DHT22;6591;51.446;5.404;2022-12-07T06:07:07;6.00;99.90
13049;DHT22;6591;51.446;5.404;2022-12-07T06:09:36;7.20;99.90
13049;DHT22;6591;51.446;5.404;2022-12-07T06:12:04;7.70;99.90
13049;DHT22;6591;51.446;5.404;2022-12-07T06:14:51;5.80;99.90
13049;DHT22;6591;51.446;5.404;2022-12-07T06:17:18;4.70;99.90
13049;DHT22;6591;51.446;5.404;2022-12-07T06:19:45;5.70;99.90
13049;DHT22;6591;51.446;5.404;2022-12-07T06:22:12;5.60;99.90
13049;DHT22;6591;51.446;5.404;2022-12-07T06:24:40;7.40;99.90
13049;DHT22;6591;51.446;5.404;2022-12-07T06:27:10;5.50;99.90
13049;DHT22;6591;51.446;5.404;2022-12-07T06:29:37;5.50;99.90
13049;DHT22;6591;51.446;5.404;2022-12-07T06:32:05;5.50;99.90
13049;DHT22;6591;51.446;5.404;2022-12-07T06:34:32;6.40;99.90
13049;DHT22;6591;51.446;5.404;2022-12-07T06:36:59;5.40;99.90
13049;DHT22;6591;51.446;5.404;2022-12-07T06:39:27;7.10;99.90
13049;DHT22;6591;51.446;5.404;2022-12-07T06:41:55;5.30;99.90
13049;DHT22;6591;51.446;5.404;2022-12-07T06:44:24;5.30;99.90
13049;DHT22;6591;51.446;5.404;2022-12-07T06:46:51;5.30;99.90
13049;DHT22;6591;51.446;5.404;2022-12-07T06:49:39;5.20;99.90
13049;DHT22;6591;51.446;5.404;2022-12-07T06:52:06;6.00;99.90
13049;DHT22;6591;51.446;5.404;2022-12-07T06:54:33;5.20;99.90
13049;DHT22;6591;51.446;5.404;2022-12-07T06:57:00;5.20;99.90
13049;DHT22;6591;51.446;5.404;2022-12-07T06:59:27;5.20;99.90
13049;DHT22;6591;51.446;5.404;2022-12-07T07:01:54;5.10;99.90
13049;DHT22;6591;51.446;5.404;2022-12-07T07:04:21;5.20;99.90
13049;DHT22;6591;51.446;5.404;2022-12-07T07:06:48;5.20;99.90
13049;DHT22;6591;51.446;5.404;2022-12-07T07:09:15;5.10;99.90
13049;DHT22;6591;51.446;5.404;2022-12-07T07:11:42;5.10;99.90
13049;DHT22;6591;51.446;5.404;2022-12-07T07:14:09;5.10;99.90
13049;DHT22;6591;51.446;5.404;2022-12-07T07:16:36;5.10;99.90
13049;DHT22;6591;51.446;5.404;2022-12-07T07:19:03;6.20;99.90
13049;DHT22;6591;51.446;5.404;2022-12-07T07:21:31;4.80;99.90
13049;DHT22;6591;51.446;5.404;2022-12-07T07:23:58;5.00;99.90
13049;DHT22;6591;51.446;5.404;2022-12-07T07:26:25;6.70;99.90
13049;DHT22;6591;51.446;5.404;2022-12-07T07:28:52;5.00;99.90
13049;DHT22;6591;51.446;5.404;2022-12-07T07:31:19;4.90;99.90
13049;DHT22;6591;51.446;5.404;2022-12-07T07:33:46;4.90;99.90
13049;DHT22;6591;51.446;5.404;2022-12-07T07:36:14;7.10;99.90
13049;DHT22;6591;51.446;5.404;2022-12-07T07:38:41;6.30;99.90
13049;DHT22;6591;51.446;5.404;2022-12-07T07:41:08;4.90;99.90
13049;DHT22;6591;51.446;5.404;2022-12-07T07:43:35;4.90;99.90
13049;DHT22;6591;51.446;5.404;2022-12-07T07:46:02;4.90;99.90
13049;DHT22;6591;51.446;5.404;2022-12-07T07:48:31;7.20;99.90
13049;DHT22;6591;51.446;5.404;2022-12-07T07:50:58;7.00;99.90
13049;DHT22;6591;51.446;5.404;2022-12-07T07:53:26;5.00;99.90
13049;DHT22;6591;51.446;5.404;2022-12-07T07:55:54;5.10;99.90
13049;DHT22;6591;51.446;5.404;2022-12-07T07:58:21;5.10;99.90
13049;DHT22;6591;51.446;5.404;2022-12-07T08:00:48;5.10;99.90
13049;DHT22;6591;51.446;5.404;2022-12-07T08:03:16;4.90;99.90
13049;DHT22;6591;51.446;5.404;2022-12-07T08:05:43;5.20;99.90
13049;DHT22;6591;51.446;5.404;2022-12-07T08:08:11;5.30;99.90
13049;DHT22;6591;51.446;5.404;2022-12-07T08:10:38;5.40;99.90
13049;DHT22;6591;51.446;5.404;2022-12-07T08:13:07;5.30;99.90
13049;DHT22;6591;51.446;5.404;2022-12-07T08:15:39;5.30;99.90
13049;DHT22;6591;51.446;5.404;2022-12-07T08:18:07;5.40;99.90
13049;DHT22;6591;51.446;5.404;2022-12-07T08:20:35;5.30;99.90
13049;DHT22;6591;51.446;5.404;2022-12-07T08:23:07;6.50;99.90
13049;DHT22;6591;51.446;5.404;2022-12-07T08:25:36;5.50;99.90
13049;DHT22;6591;51.446;5.404;2022-12-07T08:28:06;5.50;99.90
13049;DHT22;6591;51.446;5.404;2022-12-07T08:30:33;7.20;99.90
13049;DHT22;6591;51.446;5.404;2022-12-07T08:33:00;5.60;99.90
13049;DHT22;6591;51.446;5.404;2022-12-07T08:35:27;6.40;99.90
13049;DHT22;6591;51.446;5.404;2022-12-07T08:37:56;5.70;99.90
13049;DHT22;6591;51.446;5.404;2022-12-07T08:40:24;5.70;99.90
13049;DHT22;6591;51.446;5.404;2022-12-07T08:42:51;5.80;99.90
13049;DHT22;6591;51.446;5.404;2022-12-07T08:45:19;5.80;99.90
13049;DHT22;6591;51.446;5.404;2022-12-07T08:47:57;5.90;99.90
13049;DHT22;6591;51.446;5.404;2022-12-07T08:50:31;5.30;99.90
13049;DHT22;6591;51.446;5.404;2022-12-07T08:53:00;7.70;99.90
13049;DHT22;6591;51.446;5.404;2022-12-07T08:55:28;7.60;99.90
13049;DHT22;6591;51.446;5.404;2022-12-07T08:57:57;6.10;99.90
13049;DHT22;6591;51.446;5.404;2022-12-07T09:00:26;6.30;99.90
13049;DHT22;6591;51.446;5.404;2022-12-07T09:02:54;6.30;99.90
13049;DHT22;6591;51.446;5.404;2022-12-07T09:05:21;7.20;99.90
13049;DHT22;6591;51.446;5.404;2022-12-07T09:07:51;8.60;99.90
13049;DHT22;6591;51.446;5.404;2022-12-07T09:10:24;6.50;99.90
13049;DHT22;6591;51.446;5.404;2022-12-07T09:12:51;7.90;99.90
13049;DHT22;6591;51.446;5.404;2022-12-07T09:15:18;6.60;99.90
13049;DHT22;6591;51.446;5.404;2022-12-07T09:17:45;8.10;99.90
13049;DHT22;6591;51.446;5.404;2022-12-07T09:20:13;6.70;99.90
13049;DHT22;6591;51.446;5.404;2022-12-07T09:22:40;8.50;99.90
13049;DHT22;6591;51.446;5.404;2022-12-07T09:25:07;7.20;99.90
13049;DHT22;6591;51.446;5.404;2022-12-07T09:27:34;6.90;99.90
13049;DHT22;6591;51.446;5.404;2022-12-07T09:30:02;7.00;99.90
13049;DHT22;6591;51.446;5.404;2022-12-07T09:32:32;7.10;99.90
13049;DHT22;6591;51.446;5.404;2022-12-07T09:34:59;7.10;99.90
13049;DHT22;6591;51.446;5.404;2022-12-07T09:37:26;7.20;99.90
13049;DHT22;6591;51.446;5.404;2022-12-07T09:39:53;7.20;99.90
13049;DHT22;6591;51.446;5.404;2022-12-07T09:42:28;6.70;99.90
13049;DHT22;6591;51.446;5.404;2022-12-07T09:45:00;8.10;99.90
13049;DHT22;6591;51.446;5.404;2022-12-07T09:47:28;7.20;99.90
13049;DHT22;6591;51.446;5.404;2022-12-07T09:50:04;7.20;99.90
13049;DHT22;6591;51.446;5.404;2022-12-07T09:52:41;7.20;99.90
13049;DHT22;6591;51.446;5.404;2022-12-07T09:55:17;8.90;99.90
13049;DHT22;6591;51.446;5.404;2022-12-07T09:57:54;7.20;99.90
13049;DHT22;6591;51.446;5.404;2022-12-07T10:00:23;9.10;99.90
13049;DHT22;6591;51.446;5.404;2022-12-07T10:02:59;7.10;99.90
13049;DHT22;6591;51.446;5.404;2022-12-07T10:05:34;7.20;99.90
13049;DHT22;6591;51.446;5.404;2022-12-07T10:08:11;8.60;99.90
13049;DHT22;6591;51.446;5.404;2022-12-07T10:10:40;8.80;99.90
13049;DHT22;6591;51.446;5.404;2022-12-07T10:13:10;8.60;99.90
13049;DHT22;6591;51.446;5.404;2022-12-07T10:18:40;7.70;99.90
13049;DHT22;6591;51.446;5.404;2022-12-07T10:29:30;8.40;99.90
13049;DHT22;6591;51.446;5.404;2022-12-07T10:34:46;8.80;99.90
13049;DHT22;6591;51.446;5.404;2022-12-07T10:37:29;8.90;99.90
13049;DHT22;6591;51.446;5.404;2022-12-07T10:40:33;8.90;99.90
13049;DHT22;6591;51.446;5.404;2022-12-07T10:54:48;9.10;99.90
13049;DHT22;6591;51.446;5.404;2022-12-07T11:02:55;9.00;99.90
13049;DHT22;6591;51.446;5.404;2022-12-07T11:08:49;8.90;99.90
13049;DHT22;6591;51.446;5.404;2022-12-07T11:11:42;9.00;99.90
13049;DHT22;6591;51.446;5.404;2022-12-07T11:17:56;9.10;99.90
13049;DHT22;6591;51.446;5.404;2022-12-07T11:23:48;9.40;99.90
13049;DHT22;6591;51.446;5.404;2022-12-07T11:29:24;9.60;99.90
13049;DHT22;6591;51.446;5.404;2022-12-07T11:32:07;9.70;99.90
13049;DHT22;6591;51.446;5.404;2022-12-07T11:37:38;9.90;99.90
13049;DHT22;6591;51.446;5.404;2022-12-07T11:40:25;9.90;99.90
13049;DHT22;6591;51.446;5.404;2022-12-07T11:43:31;10.10;99.90
13049;DHT22;6591;51.446;5.404;2022-12-07T11:46:13;10.10;99.90
13049;DHT22;6591;51.446;5.404;2022-12-07T11:51:36;10.10;99.90
13049;DHT22;6591;51.446;5.404;2022-12-07T11:54:19;10.10;99.90
13049;DHT22;6591;51.446;5.404;2022-12-07T11:56:51;11.00;99.90
13049;DHT22;6591;51.446;5.404;2022-12-07T12:02:16;10.60;99.90
13049;DHT22;6591;51.446;5.404;2022-12-07T12:04:55;10.00;99.90
13049;DHT22;6591;51.446;5.404;2022-12-07T12:07:31;10.00;99.90
13049;DHT22;6591;51.446;5.404;2022-12-07T12:10:29;11.90;99.90
13049;DHT22;6591;51.446;5.404;2022-12-07T12:22:50;10.00;99.90
13049;DHT22;6591;51.446;5.404;2022-12-07T12:25:23;10.00;99.90
13049;DHT22;6591;51.446;5.404;2022-12-07T12:27:56;10.90;99.90
13049;DHT22;6591;51.446;5.404;2022-12-07T12:30:37;10.00;99.90
13049;DHT22;6591;51.446;5.404;2022-12-07T12:33:25;9.90;99.90
13049;DHT22;6591;51.446;5.404;2022-12-07T12:39:09;10.00;99.90
13049;DHT22;6591;51.446;5.404;2022-12-07T12:54:36;10.10;99.90
13049;DHT22;6591;51.446;5.404;2022-12-07T12:57:28;11.90;99.90
13049;DHT22;6591;51.446;5.404;2022-12-07T13:00:23;10.20;99.90
13049;DHT22;6591;51.446;5.404;2022-12-07T13:02:53;10.30;99.90
13049;DHT22;6591;51.446;5.404;2022-12-07T13:05:27;11.20;99.90
13049;DHT22;6591;51.446;5.404;2022-12-07T13:08:22;10.30;99.90
13049;DHT22;6591;51.446;5.404;2022-12-07T13:20:03;10.20;99.90
13049;DHT22;6591;51.446;5.404;2022-12-07T13:22:59;10.10;99.90
13049;DHT22;6591;51.446;5.404;2022-12-07T13:25:37;10.10;99.90
13049;DHT22;6591;51.446;5.404;2022-12-07T13:28:20;10.00;99.90
13049;DHT22;6591;51.446;5.404;2022-12-07T13:31:04;11.50;99.90
13049;DHT22;6591;51.446;5.404;2022-12-07T13:33:37;9.90;99.90
13049;DHT22;6591;51.446;5.404;2022-12-07T13:36:14;9.80;99.90
13049;DHT22;6591;51.446;5.404;2022-12-07T13:38:52;11.10;99.90
13049;DHT22;6591;51.446;5.404;2022-12-07T13:41:27;10.60;99.90
13049;DHT22;6591;51.446;5.404;2022-12-07T13:51:53;9.30;99.90
13049;DHT22;6591;51.446;5.404;2022-12-07T13:54:21;9.20;99.90
13049;DHT22;6591;51.446;5.404;2022-12-07T13:56:51;9.20;99.90
13049;DHT22;6591;51.446;5.404;2022-12-07T13:59:22;9.20;99.90
13049;DHT22;6591;51.446;5.404;2022-12-07T14:01:52;11.00;99.90
13049;DHT22;6591;51.446;5.404;2022-12-07T14:06:53;9.20;99.90
13049;DHT22;6591;51.446;5.404;2022-12-07T14:09:25;9.20;99.90
13049;DHT22;6591;51.446;5.404;2022-12-07T14:11:55;9.30;99.90
13049;DHT22;6591;51.446;5.404;2022-12-07T14:14:29;9.40;99.90
13049;DHT22;6591;51.446;5.404;2022-12-07T14:17:19;9.40;99.90
13049;DHT22;6591;51.446;5.404;2022-12-07T14:19:57;9.50;99.90
13049;DHT22;6591;51.446;5.404;2022-12-07T14:22:33;9.50;99.90
13049;DHT22;6591;51.446;5.404;2022-12-07T14:27:56;9.60;99.90
13049;DHT22;6591;51.446;5.404;2022-12-07T14:30:33;9.50;99.90
13049;DHT22;6591;51.446;5.404;2022-12-07T14:33:03;11.20;99.90
13049;DHT22;6591;51.446;5.404;2022-12-07T14:35:32;9.50;99.90
13049;DHT22;6591;51.446;5.404;2022-12-07T14:37:59;11.50;99.90
13049;DHT22;6591;51.446;5.404;2022-12-07T14:40:28;9.50;99.90
13049;DHT22;6591;51.446;5.404;2022-12-07T14:43:09;11.10;99.90
13049;DHT22;6591;51.446;5.404;2022-12-07T14:45:40;9.30;99.90
13049;DHT22;6591;51.446;5.404;2022-12-07T14:48:13;11.20;99.90
13049;DHT22;6591;51.446;5.404;2022-12-07T14:51:01;9.20;99.90
13049;DHT22;6591;51.446;5.404;2022-12-07T14:53:52;9.20;99.90
13049;DHT22;6591;51.446;5.404;2022-12-07T14:56:24;9.20;99.90
13049;DHT22;6591;51.446;5.404;2022-12-07T14:58:51;9.00;99.90
13049;DHT22;6591;51.446;5.404;2022-12-07T15:01:18;11.00;99.90
13049;DHT22;6591;51.446;5.404;2022-12-07T15:03:45;8.90;99.90
13049;DHT22;6591;51.446;5.404;2022-12-07T15:06:15;8.80;99.90
13049;DHT22;6591;51.446;5.404;2022-12-07T15:08:43;10.70;99.90
13049;DHT22;6591;51.446;5.404;2022-12-07T15:11:15;10.10;99.90
13049;DHT22;6591;51.446;5.404;2022-12-07T15:13:44;8.70;99.90
13049;DHT22;6591;51.446;5.404;2022-12-07T15:16:34;8.60;99.90
13049;DHT22;6591;51.446;5.404;2022-12-07T15:19:23;10.10;99.90
13049;DHT22;6591;51.446;5.404;2022-12-07T15:21:56;8.50;99.90
13049;DHT22;6591;51.446;5.404;2022-12-07T15:24:25;8.40;99.90
13049;DHT22;6591;51.446;5.404;2022-12-07T15:26:53;8.40;99.90
13049;DHT22;6591;51.446;5.404;2022-12-07T15:29:20;10.70;99.90
13049;DHT22;6591;51.446;5.404;2022-12-07T15:31:50;8.20;99.90
13049;DHT22;6591;51.446;5.404;2022-12-07T15:34:24;9.70;99.90
13049;DHT22;6591;51.446;5.404;2022-12-07T15:36:53;7.90;99.90
13049;DHT22;6591;51.446;5.404;2022-12-07T15:39:21;8.00;99.90
13049;DHT22;6591;51.446;5.404;2022-12-07T15:41:48;9.70;99.90
13049;DHT22;6591;51.446;5.404;2022-12-07T15:44:15;7.80;99.90
13049;DHT22;6591;51.446;5.404;2022-12-07T15:47:01;7.80;99.90
13049;DHT22;6591;51.446;5.404;2022-12-07T15:49:28;9.40;99.90
13049;DHT22;6591;51.446;5.404;2022-12-07T15:51:55;7.80;99.90
13049;DHT22;6591;51.446;5.404;2022-12-07T15:54:25;7.70;99.90
13049;DHT22;6591;51.446;5.404;2022-12-07T15:56:54;9.70;99.90
13049;DHT22;6591;51.446;5.404;2022-12-07T15:59:22;7.70;99.90
13049;DHT22;6591;51.446;5.404;2022-12-07T16:01:50;8.90;99.90
13049;DHT22;6591;51.446;5.404;2022-12-07T16:04:17;7.70;99.90
13049;DHT22;6591;51.446;5.404;2022-12-07T16:06:45;7.70;99.90
13049;DHT22;6591;51.446;5.404;2022-12-07T16:09:13;7.70;99.90
13049;DHT22;6591;51.446;5.404;2022-12-07T16:11:39;9.50;99.90
13049;DHT22;6591;51.446;5.404;2022-12-07T16:14:06;9.30;99.90
13049;DHT22;6591;51.446;5.404;2022-12-07T16:16:33;8.30;99.90
13049;DHT22;6591;51.446;5.404;2022-12-07T16:19:01;9.60;99.90
13049;DHT22;6591;51.446;5.404;2022-12-07T16:21:33;7.60;99.90
13049;DHT22;6591;51.446;5.404;2022-12-07T16:24:02;9.00;99.90
13049;DHT22;6591;51.446;5.404;2022-12-07T16:26:33;7.60;99.90
13049;DHT22;6591;51.446;5.404;2022-12-07T16:29:00;7.60;99.90
13049;DHT22;6591;51.446;5.404;2022-12-07T16:31:27;9.60;99.90
13049;DHT22;6591;51.446;5.404;2022-12-07T16:33:56;9.60;99.90
13049;DHT22;6591;51.446;5.404;2022-12-07T16:36:24;7.60;99.90
13049;DHT22;6591;51.446;5.404;2022-12-07T16:39:13;9.80;99.90
13049;DHT22;6591;51.446;5.404;2022-12-07T16:41:41;7.50;99.90
13049;DHT22;6591;51.446;5.404;2022-12-07T16:44:11;7.60;99.90
13049;DHT22;6591;51.446;5.404;2022-12-07T16:46:41;8.80;99.90
13049;DHT22;6591;51.446;5.404;2022-12-07T16:49:14;7.80;99.90
13049;DHT22;6591;51.446;5.404;2022-12-07T16:51:43;9.20;99.90
13049;DHT22;6591;51.446;5.404;2022-12-07T16:54:12;7.50;99.90
13049;DHT22;6591;51.446;5.404;2022-12-07T16:56:39;7.50;99.90
13049;DHT22;6591;51.446;5.404;2022-12-07T16:59:07;7.50;99.90
13049;DHT22;6591;51.446;5.404;2022-12-07T17:01:34;7.60;99.90
13049;DHT22;6591;51.446;5.404;2022-12-07T17:04:02;7.50;99.90
13049;DHT22;6591;51.446;5.404;2022-12-07T17:06:32;9.60;99.90
13049;DHT22;6591;51.446;5.404;2022-12-07T17:08:59;9.30;99.90
13049;DHT22;6591;51.446;5.404;2022-12-07T17:11:30;7.50;99.90
13049;DHT22;6591;51.446;5.404;2022-12-07T17:13:58;7.60;99.90
13049;DHT22;6591;51.446;5.404;2022-12-07T17:16:44;7.50;99.90
13049;DHT22;6591;51.446;5.404;2022-12-07T17:19:14;7.20;99.90
13049;DHT22;6591;51.446;5.404;2022-12-07T17:21:43;8.60;99.90
13049;DHT22;6591;51.446;5.404;2022-12-07T17:24:13;7.50;99.90
13049;DHT22;6591;51.446;5.404;2022-12-07T17:26:42;9.50;99.90
13049;DHT22;6591;51.446;5.404;2022-12-07T17:29:12;7.60;99.90
13049;DHT22;6591;51.446;5.404;2022-12-07T17:31:42;9.60;99.90
13049;DHT22;6591;51.446;5.404;2022-12-07T17:34:17;7.60;99.90
13049;DHT22;6591;51.446;5.404;2022-12-07T17:36:44;7.40;99.90
13049;DHT22;6591;51.446;5.404;2022-12-07T17:39:15;7.90;99.90
13049;DHT22;6591;51.446;5.404;2022-12-07T17:41:45;7.80;99.90
13049;DHT22;6591;51.446;5.404;2022-12-07T17:44:34;9.90;99.90
13049;DHT22;6591;51.446;5.404;2022-12-07T17:47:02;7.40;99.90
13049;DHT22;6591;51.446;5.404;2022-12-07T17:49:30;7.50;99.90
13049;DHT22;6591;51.446;5.404;2022-12-07T17:51:57;7.30;99.90
13049;DHT22;6591;51.446;5.404;2022-12-07T17:54:43;8.70;99.90
13049;DHT22;6591;51.446;5.404;2022-12-07T17:57:10;6.40;99.90
13049;DHT22;6591;51.446;5.404;2022-12-07T17:59:39;7.20;99.90
13049;DHT22;6591;51.446;5.404;2022-12-07T18:02:06;7.10;99.90
13049;DHT22;6591;51.446;5.404;2022-12-07T18:04:35;8.50;99.90
13049;DHT22;6591;51.446;5.404;2022-12-07T18:07:05;6.10;99.90
13049;DHT22;6591;51.446;5.404;2022-12-07T18:09:34;7.20;99.90
13049;DHT22;6591;51.446;5.404;2022-12-07T18:12:02;7.10;99.90
13049;DHT22;6591;51.446;5.404;2022-12-07T18:14:30;7.20;99.90
13049;DHT22;6591;51.446;5.404;2022-12-07T18:16:59;7.00;99.90
13049;DHT22;6591;51.446;5.404;2022-12-07T18:19:26;8.90;99.90
13049;DHT22;6591;51.446;5.404;2022-12-07T18:21:54;7.20;99.90
13049;DHT22;6591;51.446;5.404;2022-12-07T18:24:21;8.50;99.90
13049;DHT22;6591;51.446;5.404;2022-12-07T18:26:48;8.50;99.90
13049;DHT22;6591;51.446;5.404;2022-12-07T18:29:17;7.10;99.90
13049;DHT22;6591;51.446;5.404;2022-12-07T18:31:46;7.20;99.90
13049;DHT22;6591;51.446;5.404;2022-12-07T18:34:17;7.20;99.90
13049;DHT22;6591;51.446;5.404;2022-12-07T18:36:47;8.80;99.90
13049;DHT22;6591;51.446;5.404;2022-12-07T18:39:17;7.20;99.90
13049;DHT22;6591;51.446;5.404;2022-12-07T18:41:46;7.20;99.90
13049;DHT22;6591;51.446;5.404;2022-12-07T18:44:14;8.00;99.90
13049;DHT22;6591;51.446;5.404;2022-12-07T18:46:45;7.00;99.90
13049;DHT22;6591;51.446;5.404;2022-12-07T18:49:13;9.10;99.90
13049;DHT22;6591;51.446;5.404;2022-12-07T18:51:41;7.10;99.90
13049;DHT22;6591;51.446;5.404;2022-12-07T18:54:09;7.00;99.90
13049;DHT22;6591;51.446;5.404;2022-12-07T18:56:37;7.00;99.90
13049;DHT22;6591;51.446;5.404;2022-12-07T18:59:05;6.90;99.90